createdAt,value
2023-01-01T00:02:07.565Z,16.49
2023-01-01T00:04:40.572Z,16.43
2023-01-01T00:07:13.398Z,16.44
2023-01-01T00:10:03.602Z,16.28
2023-01-01T00:12:36.583Z,16.49
2023-01-01T00:15:10.971Z,16.38
2023-01-01T00:17:43.782Z,16.31
2023-01-01T00:20:17.043Z,16.43
2023-01-01T00:22:55.049Z,16.39
2023-01-01T00:25:28.586Z,16.54
2023-01-01T00:28:01.647Z,16.34
2023-01-01T00:30:35.843Z,16.45
2023-01-01T00:33:09.023Z,16.38
2023-01-01T00:35:42.783Z,16.35
2023-01-01T00:38:18.255Z,16.25
2023-01-01T00:40:51.200Z,16.35
2023-01-01T00:43:24.165Z,16.28
2023-01-01T00:45:58.564Z,16.26
2023-01-01T00:48:31.602Z,16.25
2023-01-01T00:51:05.487Z,16.38
2023-01-01T00:53:38.396Z,16.24
2023-01-01T00:56:11.364Z,16.18
2023-01-01T00:58:44.785Z,16.14
2023-01-01T01:01:35.557Z,16.29
2023-01-01T01:04:09.364Z,16.26
2023-01-01T01:06:42.230Z,16.20
2023-01-01T01:09:15.205Z,16.37
2023-01-01T01:11:48.067Z,16.28
2023-01-01T01:14:20.886Z,16.13
2023-01-01T01:16:55.112Z,16.17
2023-01-01T01:19:28.007Z,16.14
2023-01-01T01:22:00.803Z,16.26
2023-01-01T01:24:34.075Z,16.05
2023-01-01T01:27:07.004Z,16.05
2023-01-01T01:29:40.020Z,16.03
2023-01-01T01:32:14.576Z,16.05
2023-01-01T01:34:47.885Z,15.88
2023-01-01T01:37:20.677Z,16.13
2023-01-01T01:39:54.126Z,15.91
2023-01-01T01:42:27.399Z,16.15
2023-01-01T01:45:02.088Z,16.18
2023-01-01T01:47:40.415Z,15.97
2023-01-01T01:50:16.800Z,15.90
2023-01-01T01:53:00.923Z,16.26
2023-01-01T01:55:36.348Z,16.11
2023-01-01T01:58:12.820Z,16.00
2023-01-01T02:00:45.854Z,15.97
2023-01-01T02:03:23.671Z,16.01
2023-01-01T02:05:56.770Z,15.92
2023-01-01T02:08:30.499Z,15.99
2023-01-01T02:11:03.342Z,16.02
2023-01-01T02:13:36.389Z,16.01
2023-01-01T02:16:14.577Z,16.08
2023-01-01T02:18:55.101Z,15.99
2023-01-01T02:21:32.642Z,15.85
2023-01-01T02:24:23.693Z,15.90
2023-01-01T02:27:05.588Z,15.82
2023-01-01T02:29:45.267Z,15.74
2023-01-01T02:32:24.298Z,15.71
2023-01-01T02:35:21.951Z,15.77
2023-01-01T02:38:00.837Z,15.75
2023-01-01T02:40:36.805Z,15.58
2023-01-01T02:43:09.641Z,15.57
2023-01-01T02:45:44.021Z,15.68
2023-01-01T02:48:40.126Z,15.63
2023-01-01T02:51:23.907Z,15.72
2023-01-01T02:54:03.078Z,15.63
2023-01-01T02:56:43.027Z,15.52
2023-01-01T02:59:39.778Z,15.36
2023-01-01T03:02:26.245Z,15.42
2023-01-01T03:05:09.429Z,15.48
2023-01-01T03:07:52.720Z,15.43
2023-01-01T03:10:34.407Z,15.38
2023-01-01T03:13:16.530Z,15.31
2023-01-01T03:15:55.368Z,15.32
2023-01-01T03:18:35.579Z,15.37
2023-01-01T03:23:50.160Z,15.32
2023-01-01T03:26:28.740Z,15.22
2023-01-01T03:29:05.149Z,15.15
2023-01-01T03:31:44.983Z,15.29
2023-01-01T03:34:26.170Z,15.31
2023-01-01T03:37:04.065Z,15.35
2023-01-01T03:39:42.819Z,15.22
2023-01-01T03:42:22.993Z,15.29
2023-01-01T03:45:01.640Z,15.35
2023-01-01T03:47:34.696Z,15.23
2023-01-01T03:50:10.930Z,15.11
2023-01-01T03:52:53.023Z,15.09
2023-01-01T03:55:33.942Z,15.15
2023-01-01T03:58:13.072Z,15.01
2023-01-01T04:00:50.982Z,15.13
2023-01-01T04:03:26.350Z,15.05
2023-01-01T04:06:05.082Z,14.98
2023-01-01T04:08:39.283Z,15.18
2023-01-01T04:11:35.089Z,15.08
2023-01-01T04:14:08.239Z,14.99
2023-01-01T04:16:42.722Z,15.08
2023-01-01T04:19:15.544Z,15.02
2023-01-01T04:21:49.710Z,14.94
2023-01-01T04:24:23.339Z,14.95
2023-01-01T04:26:57.202Z,14.94
2023-01-01T04:29:30.063Z,15.03
2023-01-01T04:32:04.176Z,15.05
2023-01-01T04:34:37.131Z,14.98
2023-01-01T04:37:13.630Z,14.93
2023-01-01T04:39:48.121Z,14.89
2023-01-01T04:42:21.086Z,14.95
2023-01-01T04:44:53.873Z,14.88
2023-01-01T04:47:27.866Z,15.04
2023-01-01T04:50:00.723Z,14.94
2023-01-01T04:52:34.878Z,14.95
2023-01-01T04:55:08.362Z,14.84
2023-01-01T04:57:44.499Z,14.92
2023-01-01T05:00:17.695Z,14.99
2023-01-01T05:02:50.816Z,14.99
2023-01-01T05:05:23.874Z,14.85
2023-01-01T05:08:00.885Z,14.85
2023-01-01T05:10:33.881Z,14.74
2023-01-01T05:13:10.054Z,14.72
2023-01-01T05:15:42.837Z,14.64
2023-01-01T05:18:15.595Z,14.53
2023-01-01T05:20:48.532Z,14.54
2023-01-01T05:23:22.857Z,14.50
2023-01-01T05:25:55.655Z,14.51
2023-01-01T05:28:28.667Z,14.48
2023-01-01T05:31:06.838Z,14.49
2023-01-01T05:33:39.729Z,14.52
2023-01-01T05:36:16.665Z,14.47
2023-01-01T05:38:50.927Z,14.37
2023-01-01T05:41:24.754Z,14.53
2023-01-01T05:43:57.903Z,14.60
2023-01-01T05:46:30.747Z,14.55
2023-01-01T05:49:04.176Z,14.54
2023-01-01T05:56:43.979Z,14.53
2023-01-01T05:59:16.880Z,14.48
2023-01-01T06:01:49.872Z,14.58
2023-01-01T06:04:22.769Z,14.68
2023-01-01T06:06:55.641Z,14.47
2023-01-01T06:09:30.465Z,14.60
2023-01-01T06:12:03.487Z,14.73
2023-01-01T06:14:36.439Z,14.67
2023-01-01T06:17:09.599Z,14.72
2023-01-01T06:19:42.386Z,14.67
2023-01-01T06:22:15.589Z,14.63
2023-01-01T06:24:49.753Z,14.59
2023-01-01T06:27:22.559Z,14.62
2023-01-01T06:29:55.481Z,14.63
2023-01-01T06:32:28.309Z,14.60
2023-01-01T06:35:01.450Z,14.52
2023-01-01T06:37:34.227Z,14.77
2023-01-01T06:40:10.376Z,14.64
2023-01-01T06:42:44.364Z,14.60
2023-01-01T06:45:17.301Z,14.52
2023-01-01T06:47:50.203Z,14.60
2023-01-01T06:50:23.101Z,14.60
2023-01-01T06:52:55.889Z,14.63
2023-01-01T06:55:30.092Z,14.55
2023-01-01T06:58:02.902Z,14.54
2023-01-01T07:00:36.138Z,14.59
2023-01-01T07:03:11.116Z,14.47
2023-01-01T07:05:44.063Z,14.54
2023-01-01T07:08:16.880Z,14.51
2023-01-01T07:10:51.375Z,14.47
2023-01-01T07:13:24.586Z,14.44
2023-01-01T07:15:57.633Z,14.49
2023-01-01T07:18:30.513Z,14.57
2023-01-01T07:21:04.852Z,14.46
2023-01-01T07:23:37.853Z,14.46
2023-01-01T07:26:12.167Z,14.36
2023-01-01T07:28:45.182Z,14.18
2023-01-01T07:31:18.343Z,13.97
2023-01-01T07:33:51.563Z,13.81
2023-01-01T07:36:24.389Z,13.63
2023-01-01T07:38:57.314Z,13.43
2023-01-01T07:41:31.523Z,13.27
2023-01-01T07:44:05.285Z,13.16
2023-01-01T07:46:38.658Z,13.09
2023-01-01T07:49:11.664Z,13.02
2023-01-01T07:51:44.939Z,12.93
2023-01-01T07:54:17.747Z,12.82
2023-01-01T07:56:51.935Z,12.76
2023-01-01T07:59:25.134Z,12.70
2023-01-01T08:01:59.804Z,12.57
2023-01-01T08:04:32.633Z,12.65
2023-01-01T08:07:05.723Z,12.66
2023-01-01T08:09:38.665Z,12.56
2023-01-01T08:12:12.838Z,12.48
2023-01-01T08:14:45.696Z,12.48
2023-01-01T08:17:18.490Z,12.50
2023-01-01T08:19:52.545Z,12.44
2023-01-01T08:22:25.510Z,12.35
2023-01-01T08:24:58.388Z,12.27
2023-01-01T08:27:32.608Z,12.22
2023-01-01T08:30:06.714Z,12.18
2023-01-01T08:32:40.134Z,12.02
2023-01-01T08:35:13.055Z,11.98
2023-01-01T08:37:45.900Z,11.96
2023-01-01T08:40:18.691Z,11.86
2023-01-01T08:42:52.907Z,11.72
2023-01-01T08:45:25.785Z,11.73
2023-01-01T08:47:58.739Z,11.70
2023-01-01T08:50:32.325Z,11.71
2023-01-01T08:53:05.321Z,11.64
2023-01-01T08:55:38.235Z,11.65
2023-01-01T08:58:12.414Z,11.72
2023-01-01T09:00:45.204Z,11.81
2023-01-01T09:03:18.246Z,11.86
2023-01-01T09:05:51.142Z,11.77
2023-01-01T09:08:24.261Z,11.82
2023-01-01T09:11:00.828Z,11.80
2023-01-01T09:13:35.187Z,11.88
2023-01-01T09:16:08.513Z,11.90
2023-01-01T09:18:41.314Z,11.98
2023-01-01T09:21:14.170Z,11.93
2023-01-01T09:23:46.953Z,12.02
2023-01-01T09:26:19.842Z,12.04
2023-01-01T09:28:54.325Z,12.00
2023-01-01T09:31:27.112Z,12.01
2023-01-01T09:33:59.970Z,12.03
2023-01-01T09:36:33.678Z,12.02
2023-01-01T09:39:06.890Z,12.05
2023-01-01T09:41:51.414Z,12.08
2023-01-01T09:44:45.345Z,12.08
2023-01-01T09:47:25.077Z,12.04
2023-01-01T09:50:02.540Z,12.11
2023-01-01T09:52:42.407Z,12.41
2023-01-01T09:55:22.303Z,12.30
2023-01-01T09:57:56.651Z,12.46
2023-01-01T10:00:34.664Z,12.52
2023-01-01T10:03:30.277Z,12.80
2023-01-01T10:06:08.590Z,12.82
2023-01-01T10:09:01.504Z,12.86
2023-01-01T10:11:44.240Z,12.73
2023-01-01T10:14:23.289Z,12.89
2023-01-01T10:17:00.350Z,13.02
2023-01-01T10:19:38.486Z,13.02
2023-01-01T10:22:16.704Z,12.94
2023-01-01T10:24:53.594Z,12.55
2023-01-01T10:27:32.862Z,12.05
2023-01-01T10:30:15.146Z,11.83
2023-01-01T10:32:51.736Z,11.94
2023-01-01T10:35:31.179Z,11.95
2023-01-01T10:38:05.667Z,12.05
2023-01-01T10:40:38.538Z,12.23
2023-01-01T10:43:12.930Z,12.36
2023-01-01T10:45:49.517Z,12.43
2023-01-01T10:48:25.186Z,12.47
2023-01-01T10:50:59.883Z,12.46
2023-01-01T10:53:37.164Z,12.48
2023-01-01T10:56:13.307Z,12.63
2023-01-01T10:58:48.157Z,12.84
2023-01-01T11:01:22.155Z,13.01
2023-01-01T11:03:59.603Z,13.25
2023-01-01T11:06:34.780Z,13.33
2023-01-01T11:09:20.807Z,13.52
2023-01-01T11:12:00.800Z,13.58
2023-01-01T11:14:44.020Z,13.70
2023-01-01T11:17:22.753Z,13.76
2023-01-01T11:20:02.302Z,13.84
2023-01-01T11:22:39.240Z,13.89
2023-01-01T11:25:21.585Z,13.89
2023-01-01T11:28:19.292Z,13.92
2023-01-01T11:31:02.072Z,13.94
2023-01-01T11:33:38.845Z,13.89
2023-01-01T11:36:14.735Z,13.99
2023-01-01T11:38:49.819Z,14.00
2023-01-01T11:41:23.084Z,13.99
2023-01-01T11:43:55.906Z,14.01
2023-01-01T11:46:34.346Z,14.00
2023-01-01T11:49:14.825Z,13.97
2023-01-01T11:51:49.400Z,13.96
2023-01-01T11:54:26.728Z,13.97
2023-01-01T11:57:08.193Z,13.93
2023-01-01T11:59:47.096Z,13.86
2023-01-01T12:02:32.033Z,13.86
2023-01-01T12:05:16.429Z,13.85
2023-01-01T12:07:52.970Z,13.89
2023-01-01T12:10:30.025Z,13.89
2023-01-01T12:13:07.574Z,13.90
2023-01-01T12:15:44.928Z,13.94
2023-01-01T12:18:24.801Z,13.97
2023-01-01T12:21:18.758Z,13.95
2023-01-01T12:23:53.351Z,13.99
2023-01-01T12:26:30.413Z,14.03
2023-01-01T12:29:20.230Z,14.00
2023-01-01T12:32:05.068Z,14.01
2023-01-01T12:34:43.269Z,14.04
2023-01-01T12:37:28.269Z,14.05
2023-01-01T12:40:32.189Z,14.06
2023-01-01T12:43:09.265Z,14.03
2023-01-01T12:46:18.845Z,14.01
2023-01-01T12:49:21.759Z,14.00
2023-01-01T12:52:06.596Z,14.06
2023-01-01T12:55:13.082Z,14.04
2023-01-01T12:57:52.526Z,14.02
2023-01-01T13:00:26.971Z,14.00
2023-01-01T13:03:07.715Z,13.97
2023-01-01T13:05:43.759Z,13.93
2023-01-01T13:08:16.656Z,13.99
2023-01-01T13:10:52.014Z,13.98
2023-01-01T13:13:27.324Z,13.97
2023-01-01T13:16:00.218Z,13.96
2023-01-01T13:18:35.526Z,13.96
2023-01-01T13:21:22.722Z,13.84
2023-01-01T13:23:59.121Z,13.81
2023-01-01T13:26:45.496Z,13.79
2023-01-01T13:29:47.179Z,13.78
2023-01-01T13:32:21.343Z,13.73
2023-01-01T13:35:04.102Z,13.69
2023-01-01T13:37:45.474Z,13.80
2023-01-01T13:40:50.205Z,13.73
2023-01-01T13:43:31.077Z,13.76
2023-01-01T13:46:14.711Z,13.72
2023-01-01T13:49:06.759Z,13.71
2023-01-01T13:52:06.999Z,13.69
2023-01-01T13:55:26.741Z,13.65
2023-01-01T13:58:25.432Z,13.65
2023-01-01T14:01:18.901Z,13.64
2023-01-01T14:03:56.142Z,13.67
2023-01-01T14:06:35.834Z,13.63
2023-01-01T14:09:13.839Z,13.59
2023-01-01T14:11:46.808Z,13.52
2023-01-01T14:14:25.009Z,13.46
2023-01-01T14:17:02.005Z,13.48
2023-01-01T14:19:36.089Z,13.52
2023-01-01T14:22:10.474Z,13.49
2023-01-01T14:24:46.824Z,13.42
2023-01-01T14:27:22.681Z,13.41
2023-01-01T14:29:55.759Z,13.42
2023-01-01T14:32:33.116Z,13.52
2023-01-01T14:35:17.210Z,13.50
2023-01-01T14:37:49.965Z,13.35
2023-01-01T14:40:29.223Z,13.38
2023-01-01T14:43:06.416Z,13.40
2023-01-01T14:45:44.421Z,13.17
2023-01-01T14:48:20.805Z,13.26
2023-01-01T14:50:54.368Z,13.35
2023-01-01T14:53:32.808Z,13.36
2023-01-01T14:56:07.021Z,13.32
2023-01-01T14:58:42.107Z,13.33
2023-01-01T15:01:16.416Z,13.35
2023-01-01T15:04:02.905Z,13.33
2023-01-01T15:06:41.690Z,13.21
2023-01-01T15:09:17.512Z,13.32
2023-01-01T15:11:52.954Z,13.18
2023-01-01T15:14:32.200Z,13.08
2023-01-01T15:17:07.529Z,13.21
2023-01-01T15:19:43.642Z,13.02
2023-01-01T15:22:23.015Z,13.07
2023-01-01T15:24:56.101Z,13.04
2023-01-01T15:27:33.083Z,12.95
2023-01-01T15:30:13.699Z,12.72
2023-01-01T15:32:46.931Z,12.73
2023-01-01T15:35:31.424Z,12.88
2023-01-01T15:38:12.373Z,12.85
2023-01-01T15:40:51.108Z,12.90
2023-01-01T15:43:29.551Z,12.82
2023-01-01T15:46:20.410Z,12.86
2023-01-01T15:48:54.103Z,12.93
2023-01-01T15:51:29.888Z,12.89
2023-01-01T15:54:05.652Z,12.95
2023-01-01T15:56:41.383Z,12.94
2023-01-01T15:59:25.848Z,12.89
2023-01-01T16:02:13.463Z,12.96
2023-01-01T16:04:49.106Z,12.92
2023-01-01T16:07:28.321Z,12.59
2023-01-01T16:10:01.517Z,12.88
2023-01-01T16:12:34.349Z,12.94
2023-01-01T16:15:08.377Z,12.94
2023-01-01T16:17:42.194Z,12.91
2023-01-01T16:20:15.988Z,12.96
2023-01-01T16:22:50.191Z,12.98
2023-01-01T16:25:23.977Z,12.91
2023-01-01T16:27:56.801Z,12.86
2023-01-01T16:46:50.950Z,12.78
2023-01-01T16:49:23.743Z,12.60
2023-01-01T16:51:56.531Z,12.66
2023-01-01T16:54:29.837Z,12.61
2023-01-01T16:57:02.695Z,12.50
2023-01-01T16:59:35.775Z,12.48
2023-01-01T17:02:12.159Z,12.49
2023-01-01T17:04:44.988Z,12.39
2023-01-01T17:07:17.814Z,12.41
2023-01-01T17:09:50.768Z,12.39
2023-01-01T17:12:23.849Z,12.33
2023-01-01T17:14:56.713Z,12.26
2023-01-01T17:17:30.956Z,12.24
2023-01-01T17:20:03.999Z,12.18
2023-01-01T17:22:37.985Z,12.08
2023-01-01T17:25:11.576Z,12.07
2023-01-01T17:27:45.337Z,12.00
2023-01-01T17:30:18.373Z,11.93
2023-01-01T17:32:52.525Z,11.95
2023-01-01T17:35:29.865Z,11.88
2023-01-01T17:38:05.890Z,11.80
2023-01-01T17:40:38.697Z,11.75
2023-01-01T17:43:12.454Z,11.69
2023-01-01T17:45:45.590Z,11.68
2023-01-01T17:48:19.882Z,11.68
2023-01-01T17:50:52.703Z,11.68
2023-01-01T17:56:48.917Z,11.51
2023-01-01T17:59:22.695Z,11.43
2023-01-01T18:01:56.225Z,11.47
2023-01-01T18:04:30.433Z,11.49
2023-01-01T18:07:06.347Z,11.48
2023-01-01T18:09:40.351Z,11.49
2023-01-01T18:12:13.163Z,11.46
2023-01-01T18:14:46.150Z,11.52
2023-01-01T18:17:33.419Z,11.46
2023-01-01T18:20:09.490Z,11.29
2023-01-01T18:22:43.374Z,11.40
2023-01-01T18:28:23.752Z,11.30
2023-01-01T18:30:56.641Z,11.38
2023-01-01T18:33:30.088Z,11.37
2023-01-01T18:36:09.930Z,11.37
2023-01-01T18:38:48.431Z,11.33
2023-01-01T18:41:46.243Z,11.33
2023-01-01T18:44:21.893Z,11.31
2023-01-01T18:46:59.261Z,11.35
2023-01-01T18:49:33.581Z,11.27
2023-01-01T18:52:17.691Z,11.27
2023-01-01T18:54:59.037Z,11.27
2023-01-01T18:57:32.458Z,11.22
2023-01-01T19:00:17.345Z,11.26
2023-01-01T19:02:58.341Z,11.28
2023-01-01T19:05:32.748Z,11.19
2023-01-01T19:08:15.642Z,11.16
2023-01-01T19:10:50.102Z,11.18
2023-01-01T19:13:24.842Z,11.22
2023-01-01T19:16:01.645Z,11.11
2023-01-01T19:18:35.699Z,11.03
2023-01-01T19:21:20.373Z,11.00
2023-01-01T19:23:56.615Z,11.06
2023-01-01T19:26:33.233Z,10.98
2023-01-01T19:29:15.408Z,10.98
2023-01-01T19:31:49.813Z,11.00
2023-01-01T19:34:23.693Z,11.06
2023-01-01T19:36:56.481Z,11.09
2023-01-01T19:39:31.579Z,11.04
2023-01-01T19:42:06.793Z,11.10
2023-01-01T19:44:39.944Z,11.08
2023-01-01T19:47:12.777Z,11.09
2023-01-01T19:49:49.335Z,11.02
2023-01-01T19:52:25.274Z,11.03
2023-01-01T19:54:59.439Z,11.00
2023-01-01T19:58:04.600Z,10.99
2023-01-01T20:00:37.911Z,10.89
2023-01-01T20:03:43.386Z,10.93
2023-01-01T20:06:03.641Z,10.98
2023-01-01T20:08:37.935Z,10.97
2023-01-01T20:11:12.199Z,10.91
2023-01-01T20:13:45.148Z,10.87
2023-01-01T20:16:18.006Z,10.85
2023-01-01T20:18:50.854Z,10.87
2023-01-01T20:21:41.123Z,10.87
2023-01-01T20:24:13.960Z,10.88
2023-01-01T20:26:49.944Z,10.85
2023-01-01T20:29:23.104Z,10.83
2023-01-01T20:31:58.890Z,10.84
2023-01-01T20:34:31.856Z,10.80
2023-01-01T20:37:22.474Z,10.77
2023-01-01T20:39:55.430Z,10.81
2023-01-01T20:42:29.626Z,10.83
2023-01-01T20:45:02.595Z,10.83
2023-01-01T20:47:36.642Z,10.84
2023-01-01T20:50:10.294Z,10.87
2023-01-01T20:52:44.310Z,10.86
2023-01-01T20:55:17.294Z,10.83
2023-01-01T20:57:51.563Z,10.85
2023-01-01T21:00:24.520Z,10.86
2023-01-01T21:02:57.350Z,10.90
2023-01-01T21:05:30.164Z,10.91
2023-01-01T21:08:03.009Z,10.88
2023-01-01T21:10:36.007Z,10.93
2023-01-01T21:13:10.435Z,10.91
2023-01-01T21:15:43.383Z,10.94
2023-01-01T21:18:16.263Z,10.90
2023-01-01T21:20:50.207Z,10.95
2023-01-01T21:23:27.123Z,10.95
2023-01-01T21:25:59.988Z,10.95
2023-01-01T21:28:34.846Z,10.90
2023-01-01T21:31:11.372Z,10.94
2023-01-01T21:33:46.109Z,10.90
2023-01-01T21:36:21.460Z,10.92
2023-01-01T21:39:09.353Z,10.89
2023-01-01T21:41:42.206Z,10.94
2023-01-01T21:44:16.663Z,10.86
2023-01-01T21:46:56.875Z,10.87
2023-01-01T21:49:39.615Z,10.83
2023-01-01T21:52:18.791Z,10.78
2023-01-01T21:54:52.955Z,10.81
2023-01-01T21:57:26.490Z,10.82
2023-01-01T22:00:01.310Z,10.86
2023-01-01T22:02:38.311Z,10.87
2023-01-01T22:05:31.087Z,10.87
2023-01-01T22:08:23.279Z,10.90
2023-01-01T22:10:58.406Z,10.93
2023-01-01T22:13:32.378Z,10.93
2023-01-01T22:16:12.806Z,10.95
2023-01-01T22:18:45.700Z,11.05
2023-01-01T22:21:19.003Z,11.07
2023-01-01T22:23:57.544Z,11.13
2023-01-01T22:26:32.221Z,11.16
2023-01-01T22:29:16.628Z,11.16
2023-01-01T22:31:57.395Z,11.21
2023-01-01T22:34:30.342Z,11.27
2023-01-01T22:37:03.129Z,11.38
2023-01-01T22:39:36.691Z,11.40
2023-01-01T22:42:13.522Z,11.37
2023-01-01T22:44:53.615Z,11.38
2023-01-01T22:47:34.031Z,11.44
2023-01-01T22:50:09.867Z,11.41
2023-01-01T22:52:42.675Z,11.45
2023-01-01T22:55:15.725Z,11.48
2023-01-01T22:57:49.232Z,11.50
2023-01-01T23:00:22.704Z,11.49
2023-01-01T23:02:57.003Z,11.50
2023-01-01T23:05:30.166Z,11.47
2023-01-01T23:08:03.027Z,11.47
2023-01-01T23:10:36.663Z,11.50
2023-01-01T23:13:26.791Z,11.52
2023-01-01T23:16:02.879Z,11.54
2023-01-01T23:18:38.154Z,11.54
2023-01-01T23:21:19.991Z,11.64
2023-01-01T23:23:57.004Z,11.67
2023-01-01T23:26:29.946Z,11.69
2023-01-01T23:29:04.107Z,11.67
2023-01-01T23:31:39.239Z,11.66
2023-01-01T23:34:13.987Z,11.67
2023-01-01T23:36:47.035Z,11.76
2023-01-01T23:39:20.235Z,11.79
2023-01-01T23:41:53.118Z,11.87
2023-01-01T23:44:25.969Z,11.89
2023-01-01T23:47:01.107Z,11.87
2023-01-01T23:49:35.966Z,11.96
2023-01-01T23:52:09.635Z,11.99
2023-01-01T23:54:42.465Z,12.08
2023-01-01T23:57:15.409Z,12.08
2023-01-01T23:59:48.203Z,12.12
